Roaring Spring, Pennsylvania
Current Conditions -  °F | °C
As of 8:53 PM on Wednesday 22 Oct 2014 (Local Time) from KAOO Reporting Station
Overcast Overcast  
Wind Chill: 41°   Ceiling: 2100
Heat Index: 47°   Visibility: 10mi
Dew Point: 40°   Wind: 15mph
Humidity: 77%   Direction: 350°N
Pressure: 30.08"   Gusts: 21mph
Location:  40.34°N, 78.39°W
Report Text: KAOO 230053Z AUTO 35013G18KT 10SM OVC021 08/04 A3008 RMK AO2 SLP190 T00830044
Loading
Personal Weather Stations






























Interactive Weather Map
Tropical Storm Tracking
New forecast layout! Learn more

10-Day Weather Forecast

Advertisements
Track Severe Weather on mobile